createdAt,value
2022-10-03T00:00:12.024Z,12.95
2022-10-03T00:03:31.421Z,11.77
2022-10-03T00:06:15.525Z,9.85
2022-10-03T00:09:03.668Z,9.23
2022-10-03T00:11:56.958Z,9.55
2022-10-03T00:14:40.468Z,9.65
2022-10-03T00:17:21.847Z,9.05
2022-10-03T00:20:03.480Z,9.63
2022-10-03T00:23:00.433Z,8.65
2022-10-03T00:25:41.285Z,8.32
2022-10-03T00:28:47.894Z,8.73
2022-10-03T00:31:22.882Z,8.32
2022-10-03T00:34:15.137Z,9.05
2022-10-03T00:36:48.754Z,9.65
2022-10-03T00:39:41.509Z,8.93
2022-10-03T00:42:44.874Z,9.13
2022-10-03T00:45:35.634Z,10.18
2022-10-03T00:48:40.170Z,9.50
2022-10-03T00:51:14.413Z,9.65
2022-10-03T00:53:51.426Z,10.23
2022-10-03T00:56:55.031Z,9.77
2022-10-03T00:59:49.320Z,9.20
2022-10-03T01:02:35.647Z,8.88
2022-10-03T01:05:42.951Z,8.43
2022-10-03T01:08:49.379Z,8.43
2022-10-03T01:11:27.662Z,8.23
2022-10-03T01:14:04.862Z,8.35
2022-10-03T01:17:07.874Z,8.07
2022-10-03T01:20:03.332Z,7.30
2022-10-03T01:23:13.383Z,7.57
2022-10-03T01:26:06.252Z,6.93
2022-10-03T01:28:34.350Z,5.57
2022-10-03T01:31:06.992Z,4.80
2022-10-03T01:33:49.581Z,4.00
2022-10-03T01:36:40.438Z,4.22
2022-10-03T01:39:27.189Z,4.20
2022-10-03T01:42:20.275Z,5.70
2022-10-03T01:45:15.666Z,4.63
2022-10-03T01:47:46.884Z,4.97
2022-10-03T01:50:32.969Z,2.92
2022-10-03T01:53:08.156Z,2.50
2022-10-03T01:55:54.618Z,2.92
2022-10-03T01:58:36.092Z,2.50
2022-10-03T02:01:32.150Z,2.60
2022-10-03T02:04:23.531Z,2.75
2022-10-03T02:07:14.877Z,2.00
2022-10-03T02:10:05.046Z,2.38
2022-10-03T02:12:56.349Z,2.13
2022-10-03T02:15:43.302Z,1.83
2022-10-03T02:18:23.885Z,2.03
2022-10-03T02:21:19.508Z,2.22
2022-10-03T02:23:49.931Z,1.73
2022-10-03T02:26:18.023Z,2.22
2022-10-03T02:28:59.610Z,2.22
2022-10-03T02:32:10.259Z,2.60
2022-10-03T02:35:02.971Z,2.08
2022-10-03T02:37:59.226Z,3.50
2022-10-03T02:41:04.165Z,2.85
2022-10-03T02:43:43.293Z,2.72
2022-10-03T02:46:23.781Z,2.70
2022-10-03T02:49:25.328Z,2.40
2022-10-03T02:51:59.577Z,2.42
2022-10-03T02:54:52.188Z,2.67
2022-10-03T02:57:44.648Z,1.90
2022-10-03T03:00:40.574Z,1.50
2022-10-03T03:03:30.166Z,1.60
2022-10-03T03:06:13.347Z,1.73
2022-10-03T03:09:05.223Z,1.90
2022-10-03T03:11:42.894Z,1.95
2022-10-03T03:14:11.223Z,2.58
2022-10-03T03:16:57.815Z,2.70
2022-10-03T03:19:40.071Z,3.15
2022-10-03T03:22:38.887Z,2.65
2022-10-03T03:25:31.234Z,2.22
2022-10-03T03:28:18.634Z,2.47
2022-10-03T03:31:04.441Z,2.35
2022-10-03T03:33:47.686Z,2.20
2022-10-03T03:36:45.016Z,2.17
2022-10-03T03:39:19.232Z,2.40
2022-10-03T03:42:12.428Z,2.60
2022-10-03T03:44:46.672Z,2.55
2022-10-03T03:47:33.298Z,2.92
2022-10-03T03:50:13.257Z,2.30
2022-10-03T03:52:57.162Z,1.95
2022-10-03T03:55:52.022Z,1.80
2022-10-03T03:58:25.990Z,1.50
2022-10-03T04:00:54.206Z,1.77
2022-10-03T04:03:50.654Z,1.80
2022-10-03T04:06:27.451Z,2.25
2022-10-03T04:09:17.660Z,2.17
2022-10-03T04:12:25.128Z,2.45
2022-10-03T04:15:14.679Z,2.47
2022-10-03T04:18:07.278Z,2.53
2022-10-03T04:20:57.267Z,2.55
2022-10-03T04:23:44.659Z,2.33
2022-10-03T04:26:27.920Z,2.58
2022-10-03T04:29:20.812Z,2.45
2022-10-03T04:32:12.053Z,2.78
2022-10-03T04:35:10.384Z,2.30
2022-10-03T04:37:53.002Z,2.70
2022-10-03T04:40:45.157Z,2.17
2022-10-03T04:43:20.865Z,3.05
2022-10-03T04:46:23.057Z,2.53
2022-10-03T04:49:14.660Z,2.50
2022-10-03T04:51:45.924Z,2.30
2022-10-03T04:54:46.766Z,2.80
2022-10-03T04:57:56.512Z,2.67
2022-10-03T05:00:26.592Z,2.90
2022-10-03T05:03:21.938Z,3.28
2022-10-03T05:05:50.240Z,3.35
2022-10-03T05:08:41.881Z,3.15
2022-10-03T05:11:20.928Z,3.40
2022-10-03T05:14:27.522Z,4.13
2022-10-03T05:17:19.103Z,5.30
2022-10-03T05:20:24.612Z,5.73
2022-10-03T05:22:58.842Z,6.93
2022-10-03T05:26:10.796Z,8.15
2022-10-03T05:28:51.390Z,7.78
2022-10-03T05:31:26.021Z,8.68
2022-10-03T05:34:17.471Z,8.35
2022-10-03T05:36:58.242Z,9.35
2022-10-03T05:39:54.383Z,10.50
2022-10-03T05:42:41.134Z,10.40
2022-10-03T05:45:51.759Z,8.50
2022-10-03T05:48:41.136Z,10.02
2022-10-03T05:51:37.263Z,10.43
2022-10-03T05:54:23.684Z,10.07
2022-10-03T05:57:19.583Z,9.82
2022-10-03T06:00:01.895Z,11.15
2022-10-03T06:02:57.957Z,10.68
2022-10-03T06:06:10.585Z,11.23
2022-10-03T06:09:26.430Z,9.45
2022-10-03T06:12:12.855Z,9.23
2022-10-03T06:14:48.525Z,8.82
2022-10-03T06:17:50.156Z,8.30
2022-10-03T06:20:31.876Z,8.23
2022-10-03T06:23:15.017Z,7.90
2022-10-03T06:26:04.892Z,7.55
2022-10-03T06:28:33.102Z,7.82
2022-10-03T06:31:31.882Z,8.55
2022-10-03T06:34:03.541Z,9.20
2022-10-03T06:36:49.040Z,9.27
2022-10-03T06:39:35.423Z,8.77
2022-10-03T06:42:09.721Z,10.07
2022-10-03T06:44:58.294Z,10.32
2022-10-03T06:47:41.375Z,10.05
2022-10-03T06:50:15.559Z,11.30
2022-10-03T06:52:58.891Z,12.50
2022-10-03T06:55:54.718Z,12.35
2022-10-03T06:58:32.082Z,12.63
2022-10-03T07:01:18.414Z,12.73
2022-10-03T07:04:14.195Z,12.43
2022-10-03T07:07:17.071Z,11.82
2022-10-03T07:10:14.784Z,11.43
2022-10-03T07:13:01.261Z,11.82
2022-10-03T07:18:53.365Z,11.52
2022-10-03T07:21:31.828Z,11.25
2022-10-03T07:24:37.085Z,11.02
2022-10-03T07:27:51.330Z,10.02
2022-10-03T07:30:31.923Z,9.60
2022-10-03T07:33:18.268Z,10.25
2022-10-03T07:36:18.963Z,11.18
2022-10-03T07:39:02.177Z,11.55
2022-10-03T07:42:04.085Z,9.70
2022-10-03T07:44:47.572Z,9.60
2022-10-03T07:48:12.990Z,8.82
2022-10-03T07:50:49.946Z,7.93
2022-10-03T07:53:43.730Z,9.05
2022-10-03T07:56:39.122Z,8.15
2022-10-03T07:59:32.111Z,8.35
2022-10-03T08:02:03.266Z,9.95
2022-10-03T08:04:59.378Z,9.10
2022-10-03T08:07:42.830Z,8.38
2022-10-03T08:10:26.358Z,8.60
2022-10-03T08:13:12.236Z,8.23
2022-10-03T08:16:01.853Z,10.13
2022-10-03T08:19:10.540Z,8.88
2022-10-03T08:21:56.868Z,8.18
2022-10-03T08:24:49.300Z,8.05
2022-10-03T08:30:06.714Z,7.75
2022-10-03T08:32:50.293Z,6.75
2022-10-03T08:35:49.021Z,6.57
2022-10-03T08:38:32.268Z,6.47
2022-10-03T08:41:24.948Z,6.25
2022-10-03T08:44:35.553Z,5.25
2022-10-03T08:47:21.419Z,6.35
2022-10-03T08:50:14.256Z,4.85
2022-10-03T08:53:03.493Z,3.90
2022-10-03T08:55:34.676Z,4.40
2022-10-03T08:58:39.711Z,4.28
2022-10-03T09:01:23.051Z,4.53
2022-10-03T09:04:09.610Z,6.07
2022-10-03T09:07:18.856Z,5.90
2022-10-03T09:10:08.813Z,4.80
2022-10-03T09:13:04.562Z,4.35
2022-10-03T09:15:45.034Z,3.88
2022-10-03T09:18:40.892Z,3.40
2022-10-03T09:21:33.762Z,4.30
2022-10-03T09:24:11.029Z,4.00
2022-10-03T09:27:09.903Z,3.47
2022-10-03T09:29:46.710Z,6.28
2022-10-03T09:32:59.477Z,4.43
2022-10-03T09:38:41.355Z,5.50
2022-10-03T09:41:47.527Z,5.63
2022-10-03T09:45:00.474Z,7.03
2022-10-03T09:47:40.659Z,6.70
2022-10-03T09:50:17.802Z,6.55
2022-10-03T09:53:08.491Z,6.10
2022-10-03T09:55:54.947Z,6.15
2022-10-03T09:58:37.556Z,5.22
2022-10-03T10:01:14.869Z,4.93
2022-10-03T10:04:12.286Z,4.40
2022-10-03T10:07:17.827Z,3.50
2022-10-03T10:10:16.942Z,2.95
2022-10-03T10:13:02.476Z,2.70
2022-10-03T10:15:45.078Z,2.75
2022-10-03T10:18:50.033Z,3.38
2022-10-03T10:21:41.005Z,2.92
2022-10-03T10:24:40.038Z,2.72
2022-10-03T10:27:32.481Z,22.08
2022-10-03T10:33:01.697Z,5.30
2022-10-03T10:36:14.458Z,3.13
2022-10-03T10:41:45.201Z,3.35
2022-10-03T10:44:28.363Z,6.25
2022-10-03T10:47:14.247Z,3.53
2022-10-03T10:50:01.992Z,2.95
2022-10-03T10:53:04.121Z,16.48
2022-10-03T10:55:35.341Z,3.78
2022-10-03T10:58:24.525Z,3.30
2022-10-03T11:01:14.207Z,3.03
2022-10-03T11:04:01.008Z,2.90
2022-10-03T11:06:50.600Z,2.25
2022-10-03T11:09:44.884Z,2.08
2022-10-03T11:12:40.570Z,1.55
2022-10-03T11:15:44.177Z,2.10
2022-10-03T11:18:50.297Z,1.90
2022-10-03T11:21:39.885Z,2.22
2022-10-03T11:24:46.783Z,1.77
2022-10-03T11:27:55.803Z,2.05
2022-10-03T11:31:01.107Z,2.75
2022-10-03T11:34:04.323Z,3.53
2022-10-03T11:37:08.275Z,2.88
2022-10-03T11:39:43.582Z,3.17
2022-10-03T11:42:24.965Z,3.03
2022-10-03T11:45:02.695Z,2.90
2022-10-03T11:54:13.027Z,3.03
2022-10-03T12:10:47.446Z,3.00
2022-10-03T12:13:27.823Z,2.85
2022-10-03T12:15:58.200Z,3.65
2022-10-03T12:18:41.446Z,2.60
2022-10-03T12:21:17.243Z,2.40
2022-10-03T12:24:23.091Z,2.85
2022-10-03T12:27:04.909Z,2.20
2022-10-03T12:29:36.794Z,1.95
2022-10-03T12:32:33.431Z,1.58
2022-10-03T12:35:38.743Z,2.05
2022-10-03T12:38:31.497Z,2.58
2022-10-03T12:41:18.493Z,2.47
2022-10-03T12:44:13.844Z,2.90
2022-10-03T12:47:03.540Z,2.50
2022-10-03T12:49:51.969Z,2.00
2022-10-03T12:52:34.281Z,1.90
2022-10-03T12:55:11.303Z,2.90
2022-10-03T12:57:58.131Z,2.42
2022-10-03T13:00:49.603Z,2.10
2022-10-03T13:03:18.107Z,5.40
2022-10-03T13:05:54.787Z,3.45
2022-10-03T13:08:36.998Z,2.80
2022-10-03T13:13:42.531Z,3.00
2022-10-03T13:16:10.998Z,3.65
2022-10-03T13:19:06.230Z,2.30
2022-10-03T13:21:53.044Z,2.90
2022-10-03T13:24:39.748Z,3.05
2022-10-03T13:27:26.770Z,1.80
2022-10-03T13:30:06.894Z,3.17
2022-10-03T13:32:41.110Z,3.47
2022-10-03T13:35:18.652Z,4.13
2022-10-03T13:38:05.359Z,3.30
2022-10-03T13:40:36.798Z,3.95
2022-10-03T13:43:10.978Z,4.60
2022-10-03T13:45:44.079Z,4.38
2022-10-03T13:48:16.721Z,3.88
2022-10-03T13:51:03.911Z,4.88
2022-10-03T13:53:50.808Z,2.58
2022-10-03T13:56:37.942Z,5.43
2022-10-03T13:59:06.317Z,3.08
2022-10-03T14:01:41.028Z,3.95
2022-10-03T14:04:24.600Z,8.40
2022-10-03T14:07:05.228Z,12.13
2022-10-03T14:09:34.073Z,6.57
2022-10-03T14:12:08.999Z,5.03
2022-10-03T14:14:40.427Z,5.00
2022-10-03T14:17:12.479Z,4.70
2022-10-03T14:19:49.910Z,2.60
2022-10-03T14:22:24.371Z,3.25
2022-10-03T14:24:57.778Z,3.55
2022-10-03T14:27:32.164Z,3.97
2022-10-03T14:30:03.553Z,3.33
2022-10-03T14:32:48.073Z,3.45
2022-10-03T14:35:35.335Z,1.88
2022-10-03T14:38:03.851Z,4.13
2022-10-03T14:40:41.871Z,4.32
2022-10-03T14:43:16.107Z,4.53
2022-10-03T14:45:46.336Z,4.50
2022-10-03T14:48:18.535Z,5.25
2022-10-03T14:50:48.467Z,5.20
2022-10-03T14:53:21.701Z,5.90
2022-10-03T14:55:53.142Z,6.25
2022-10-03T14:58:26.964Z,5.22
2022-10-03T15:01:01.983Z,10.90
2022-10-03T15:03:38.431Z,7.07
2022-10-03T15:06:12.533Z,3.45
2022-10-03T15:08:42.969Z,2.47
2022-10-03T15:11:12.468Z,3.70
2022-10-03T15:13:56.438Z,2.50
2022-10-03T15:16:25.733Z,3.45
2022-10-03T15:18:56.264Z,3.20
2022-10-03T15:21:26.151Z,3.20
2022-10-03T15:23:57.445Z,2.72
2022-10-03T15:26:27.306Z,3.23
2022-10-03T15:28:58.252Z,2.97
2022-10-03T15:31:46.672Z,2.13
2022-10-03T15:34:21.259Z,8.15
2022-10-03T15:36:51.453Z,4.20
2022-10-03T15:39:26.284Z,4.63
2022-10-03T15:41:54.684Z,4.50
2022-10-03T15:44:30.755Z,3.72
2022-10-03T15:47:00.743Z,8.48
2022-10-03T15:49:31.907Z,6.55
2022-10-03T15:52:07.615Z,10.83
2022-10-03T15:54:36.780Z,4.40
2022-10-03T15:57:06.700Z,4.18
2022-10-03T15:59:36.981Z,3.40
2022-10-03T16:02:10.643Z,13.07
2022-10-03T16:04:39.238Z,3.95
2022-10-03T16:07:10.049Z,4.45
2022-10-03T16:09:50.849Z,4.68
2022-10-03T16:12:37.644Z,4.65
2022-10-03T16:15:16.228Z,2.60
2022-10-03T16:17:47.808Z,3.83
2022-10-03T16:20:34.456Z,2.67
2022-10-03T16:23:17.898Z,2.33
2022-10-03T16:25:52.212Z,2.47
2022-10-03T16:28:23.237Z,2.45
2022-10-03T16:30:55.850Z,2.90
2022-10-03T16:33:26.911Z,1.80
2022-10-03T16:35:57.642Z,2.15
2022-10-03T16:38:27.637Z,2.20
2022-10-03T16:41:16.253Z,2.30
2022-10-03T16:43:55.207Z,4.60
2022-10-03T16:46:24.806Z,2.83
2022-10-03T16:48:54.985Z,2.95
2022-10-03T16:51:26.164Z,1.95
2022-10-03T16:53:55.707Z,3.55
2022-10-03T16:56:31.047Z,2.40
2022-10-03T16:59:03.616Z,3.33
2022-10-03T17:01:41.057Z,2.72
2022-10-03T17:04:14.679Z,3.47
2022-10-03T17:06:46.616Z,12.90
2022-10-03T17:09:24.955Z,2.60
2022-10-03T17:11:55.730Z,3.03
2022-10-03T17:14:24.526Z,4.33
2022-10-03T17:19:01.906Z,3.20
2022-10-03T17:21:33.204Z,2.47
2022-10-03T17:24:12.107Z,1.95
2022-10-03T17:26:46.417Z,3.33
2022-10-03T17:29:22.212Z,3.30
2022-10-03T17:31:53.265Z,3.17
2022-10-03T17:34:54.783Z,3.90
2022-10-03T17:38:14.938Z,2.90
2022-10-03T17:41:27.293Z,2.55
2022-10-03T17:44:22.142Z,8.95
2022-10-03T17:47:03.984Z,6.75
2022-10-03T17:50:16.528Z,4.05
2022-10-03T17:55:42.156Z,9.88
2022-10-03T17:58:16.862Z,5.03
2022-10-03T18:00:45.190Z,7.65
2022-10-03T18:06:00.357Z,8.82
2022-10-03T18:08:35.578Z,12.20
2022-10-03T18:11:04.362Z,15.05
2022-10-03T18:13:43.691Z,10.65
2022-10-03T18:16:30.202Z,11.60
2022-10-03T18:19:21.581Z,9.65
2022-10-03T18:22:17.140Z,5.95
2022-10-03T18:24:55.753Z,5.40
2022-10-03T18:27:42.289Z,5.10
2022-10-03T18:30:21.274Z,4.65
2022-10-03T18:32:51.506Z,4.32
2022-10-03T18:35:47.364Z,3.88
2022-10-03T18:38:21.142Z,3.65
2022-10-03T18:40:58.336Z,4.22
2022-10-03T18:43:39.132Z,4.50
2022-10-03T18:46:28.171Z,4.55
2022-10-03T18:52:20.365Z,5.00
2022-10-03T18:54:58.741Z,6.25
2022-10-03T18:57:41.668Z,8.02
2022-10-03T19:00:27.704Z,9.88
2022-10-03T19:03:18.266Z,14.88
2022-10-03T19:05:59.474Z,13.80
2022-10-03T19:08:51.352Z,12.23
2022-10-03T19:11:26.844Z,14.27
2022-10-03T19:14:07.818Z,21.95
2022-10-03T19:16:41.973Z,16.65
2022-10-03T19:19:13.283Z,17.63
2022-10-03T19:21:42.705Z,8.90
2022-10-03T19:24:56.833Z,7.63
2022-10-03T19:27:28.660Z,9.93
2022-10-03T19:29:58.540Z,7.85
2022-10-03T19:32:50.190Z,5.70
2022-10-03T19:41:15.219Z,9.43
2022-10-03T19:43:48.994Z,10.60
2022-10-03T19:46:55.501Z,14.82
2022-10-03T19:49:27.556Z,20.77
2022-10-03T19:52:38.834Z,24.70
2022-10-03T19:55:14.586Z,32.63
2022-10-03T19:58:00.333Z,34.90
2022-10-03T20:00:39.619Z,19.58
2022-10-03T20:03:22.213Z,19.38
2022-10-03T20:06:41.640Z,23.10
2022-10-03T20:09:21.711Z,32.15
2022-10-03T20:12:11.744Z,81.30
2022-10-03T20:14:42.545Z,61.63
2022-10-03T20:17:24.080Z,31.15
2022-10-03T20:20:07.622Z,19.65
2022-10-03T20:22:37.500Z,18.25
2022-10-03T20:25:09.218Z,18.75
2022-10-03T20:27:41.651Z,17.20
2022-10-03T20:30:23.075Z,14.05
2022-10-03T20:32:52.303Z,11.83
2022-10-03T20:36:06.507Z,14.50
2022-10-03T20:38:57.347Z,16.27
2022-10-03T20:41:35.953Z,15.10
2022-10-03T20:44:33.472Z,15.85
2022-10-03T20:47:15.380Z,18.70
2022-10-03T20:49:48.769Z,18.73
2022-10-03T20:52:21.756Z,19.30
2022-10-03T20:54:54.036Z,19.20
2022-10-03T21:00:24.054Z,17.30
2022-10-03T21:02:58.500Z,14.27
2022-10-03T21:05:36.614Z,13.27
2022-10-03T21:08:26.016Z,12.85
2022-10-03T21:11:03.968Z,14.52
2022-10-03T21:14:02.513Z,14.82
2022-10-03T21:16:35.571Z,15.10
2022-10-03T21:19:06.686Z,16.27
2022-10-03T21:21:39.476Z,15.48
2022-10-03T21:24:25.594Z,15.18
2022-10-03T21:27:15.845Z,13.23
2022-10-03T21:30:12.750Z,12.80
2022-10-03T21:33:06.058Z,13.30
2022-10-03T21:35:38.200Z,18.35
2022-10-03T21:41:04.450Z,20.58
2022-10-03T21:43:59.732Z,13.82
2022-10-03T21:46:39.407Z,12.73
2022-10-03T21:49:34.942Z,12.43
2022-10-03T21:52:27.730Z,12.52
2022-10-03T21:55:02.004Z,11.23
2022-10-03T21:57:54.280Z,10.75
2022-10-03T22:00:51.164Z,10.15
2022-10-03T22:03:49.558Z,9.63
2022-10-03T22:06:25.475Z,9.82
2022-10-03T22:08:54.720Z,11.35
2022-10-03T22:12:03.059Z,10.07
2022-10-03T22:14:54.852Z,12.13
2022-10-03T22:17:41.125Z,18.67
2022-10-03T22:20:17.634Z,19.85
2022-10-03T22:23:13.239Z,14.57
2022-10-03T22:26:00.113Z,11.30
2022-10-03T22:28:40.255Z,10.43
2022-10-03T22:31:14.299Z,8.57
2022-10-03T22:34:16.110Z,11.98
2022-10-03T22:36:45.021Z,14.90
2022-10-03T22:39:16.329Z,16.95
2022-10-03T22:41:47.754Z,12.13
2022-10-03T22:44:18.714Z,11.40
2022-10-03T22:46:51.367Z,6.80
2022-10-03T22:49:28.686Z,5.72
2022-10-03T22:51:58.273Z,4.20
2022-10-03T22:54:34.514Z,5.07
2022-10-03T22:57:13.303Z,5.32
2022-10-03T22:59:55.269Z,3.30
2022-10-03T23:02:37.924Z,4.00
2022-10-03T23:05:14.867Z,3.05
2022-10-03T23:08:04.181Z,4.00
2022-10-03T23:11:07.243Z,5.03
2022-10-03T23:13:43.728Z,6.70
2022-10-03T23:16:33.335Z,6.47
2022-10-03T23:19:25.798Z,9.20
2022-10-03T23:24:33.211Z,11.93
2022-10-03T23:27:04.539Z,19.65
2022-10-03T23:29:32.716Z,31.10
2022-10-03T23:32:05.652Z,23.38
2022-10-03T23:34:33.807Z,28.95
2022-10-03T23:37:14.359Z,8.60
2022-10-03T23:39:45.691Z,6.63
2022-10-03T23:42:43.985Z,5.30
2022-10-03T23:45:13.601Z,5.45
2022-10-03T23:48:03.506Z,5.07
2022-10-03T23:50:49.096Z,5.18
2022-10-03T23:53:34.702Z,4.97
2022-10-03T23:56:04.408Z,10.18
2022-10-03T23:58:38.360Z,14.57
